Time;durP1;ratioP1;P1;durP2;ratioP2;P2;SDS_P1;SDS_P2;PMS_P1;PMS_P2;Temp;Humidity;BMP_temperature;BMP_pressure;BME280_temperature;BME280_humidity;BME280_pressure;Samples;Min_cycle;Max_cycle;Signal;HPM_P1;HPM_P2
2021/01/17 00:00:45;;;;;;;14.03;8.90;;;0.80;1.00;;;;;;5111930;28;20424;-61
2021/01/17 00:03:11;;;;;;;13.37;8.60;;;0.80;1.00;;;;;;5111209;28;20188;-61
2021/01/17 00:05:37;;;;;;;12.97;8.63;;;0.80;1.00;;;;;;5111819;28;20440;-61
2021/01/17 00:08:10;;;;;;;12.30;8.50;;;0.80;1.00;;;;;;5109257;28;20939;-61
2021/01/17 00:10:37;;;;;;;11.80;8.83;;;0.80;1.00;;;;;;5111870;28;20459;-61
2021/01/17 00:13:03;;;;;;;12.33;8.13;;;0.80;1.00;;;;;;5105185;28;20455;-61
2021/01/17 00:15:29;;;;;;;13.10;8.50;;;0.90;1.00;;;;;;5107700;28;20436;-61
2021/01/17 00:17:55;;;;;;;14.00;9.47;;;0.70;1.00;;;;;;5110274;28;21003;-61
2021/01/17 00:20:22;;;;;;;14.80;10.23;;;0.80;1.00;;;;;;5110722;28;20185;-61
2021/01/17 00:22:49;;;;;;;13.47;8.53;;;0.80;1.00;;;;;;5111946;28;20984;-61
2021/01/17 00:25:17;;;;;;;12.17;8.33;;;0.80;1.00;;;;;;5108267;28;20456;-61
2021/01/17 00:27:44;;;;;;;11.97;8.60;;;0.70;1.00;;;;;;5111601;28;20430;-61
2021/01/17 00:30:11;;;;;;;13.17;9.03;;;1.40;1.00;;;;;;5109989;28;20517;-61
2021/01/17 00:32:36;;;;;;;13.80;8.37;;;0.50;1.00;;;;;;5107680;28;20562;-61
2021/01/17 00:35:03;;;;;;;13.17;8.40;;;0.50;1.00;;;;;;5110518;28;20519;-61
2021/01/17 00:37:29;;;;;;;12.50;8.57;;;;;;;;;;5110873;28;20174;-61
2021/01/17 00:39:55;;;;;;;11.70;8.00;;;0.70;1.00;;;;;;5111397;28;20463;-61
2021/01/17 00:42:21;;;;;;;13.07;7.83;;;0.70;1.00;;;;;;5106569;28;20484;-61
2021/01/17 00:44:48;;;;;;;13.33;8.57;;;0.70;1.00;;;;;;5111340;28;20244;-61
2021/01/17 00:47:14;;;;;;;12.50;8.10;;;0.70;1.00;;;;;;5106154;28;20182;-61
2021/01/17 00:49:43;;;;;;;11.53;7.97;;;0.80;1.00;;;;;;5110479;28;20480;-61
2021/01/17 00:52:22;;;;;;;14.10;8.47;;;0.80;1.00;;;;;;5112505;28;20542;-61
2021/01/17 00:54:48;;;;;;;19.23;9.60;;;0.90;1.00;;;;;;5114869;27;20848;-61
2021/01/17 00:57:15;;;;;;;12.87;8.83;;;0.90;1.00;;;;;;5115371;28;20424;-61
2021/01/17 00:59:40;;;;;;;14.00;8.73;;;0.70;1.00;;;;;;5115382;28;20446;-61
2021/01/17 01:02:06;;;;;;;13.70;7.70;;;0.70;1.00;;;;;;5121028;27;20432;-61
2021/01/17 01:04:32;;;;;;;14.73;9.20;;;0.70;1.00;;;;;;5114208;28;20190;-62
2021/01/17 01:06:58;;;;;;;12.00;8.27;;;0.70;1.00;;;;;;5115185;28;20519;-61
2021/01/17 01:09:24;;;;;;;13.97;8.90;;;0.60;1.00;;;;;;5114346;28;20209;-61
2021/01/17 01:11:50;;;;;;;11.50;8.30;;;0.60;1.00;;;;;;5114754;28;20211;-61
2021/01/17 01:14:16;;;;;;;16.73;9.67;;;0.60;1.00;;;;;;5113185;28;20940;-61
2021/01/17 01:17:00;;;;;;;14.07;9.10;;;0.70;1.00;;;;;;5113118;28;20448;-62
2021/01/17 01:19:25;;;;;;;17.13;9.70;;;0.70;1.00;;;;;;5112470;28;20448;-61
2021/01/17 01:21:51;;;;;;;13.57;8.73;;;0.80;1.00;;;;;;5114823;28;20460;-61
2021/01/17 01:24:16;;;;;;;15.87;9.53;;;0.90;1.00;;;;;;5114594;28;20655;-61
2021/01/17 01:26:45;;;;;;;12.70;8.10;;;0.80;1.00;;;;;;5109828;27;20269;-62
2021/01/17 01:29:12;;;;;;;14.40;8.83;;;0.80;1.00;;;;;;5114544;28;20660;-61
2021/01/17 01:31:39;;;;;;;12.50;8.40;;;0.90;1.00;;;;;;5118949;27;21034;-61
2021/01/17 01:34:05;;;;;;;12.60;8.80;;;1.00;1.00;;;;;;5135294;27;20423;-61
2021/01/17 01:36:35;;;;;;;12.30;9.77;;;1.10;1.00;;;;;;5117803;27;20444;-61
2021/01/17 01:39:01;;;;;;;11.60;8.57;;;1.10;1.00;;;;;;5113821;28;20433;-61
2021/01/17 01:41:32;;;;;;;13.83;9.23;;;1.00;1.00;;;;;;5113828;28;20444;-61
2021/01/17 01:43:58;;;;;;;11.80;8.53;;;1.00;1.00;;;;;;5114326;28;20790;-61
2021/01/17 01:46:26;;;;;;;15.20;9.07;;;1.00;1.00;;;;;;5110492;27;20459;-61
2021/01/17 01:48:53;;;;;;;9.87;7.80;;;1.10;1.00;;;;;;5113348;27;20443;-61
2021/01/17 01:51:22;;;;;;;11.77;9.10;;;1.10;1.00;;;;;;5114405;28;20432;-61
2021/01/17 01:53:50;;;;;;;13.10;9.37;;;1.00;1.00;;;;;;5114454;28;20432;-62
2021/01/17 01:56:16;;;;;;;14.57;10.00;;;1.00;1.00;;;;;;5111727;28;20447;-61
2021/01/17 01:58:42;;;;;;;14.73;10.13;;;1.00;1.00;;;;;;5112967;28;20443;-62
2021/01/17 02:01:09;;;;;;;16.23;9.87;;;1.10;1.00;;;;;;5114360;28;20223;-61
2021/01/17 02:03:35;;;;;;;13.43;9.60;;;1.00;1.00;;;;;;5112885;28;20444;-61
2021/01/17 02:06:01;;;;;;;15.57;10.47;;;1.00;1.00;;;;;;5114330;28;20576;-61
2021/01/17 02:08:41;;;;;;;13.77;9.37;;;1.00;1.00;;;;;;5112750;28;20183;-61
2021/01/17 02:11:17;;;;;;;15.43;10.37;;;1.10;1.00;;;;;;5114024;28;20911;-61
2021/01/17 02:13:56;;;;;;;15.03;9.70;;;1.10;1.00;;;;;;5113761;28;20448;-61
2021/01/17 02:16:22;;;;;;;14.50;9.83;;;1.00;1.00;;;;;;5112608;28;20451;-61
2021/01/17 02:18:52;;;;;;;13.43;9.10;;;1.10;1.00;;;;;;5112411;27;20424;-61
2021/01/17 02:21:18;;;;;;;11.40;9.30;;;1.00;1.00;;;;;;5111209;27;20944;-61
2021/01/17 02:24:00;;;;;;;14.83;9.30;;;0.90;1.00;;;;;;5112998;28;20756;-61
2021/01/17 02:26:26;;;;;;;13.77;10.00;;;0.90;1.00;;;;;;5111686;28;20446;-61
2021/01/17 02:28:52;;;;;;;14.43;9.53;;;0.90;1.00;;;;;;5113569;27;20443;-61
2021/01/17 02:31:19;;;;;;;14.60;9.30;;;1.10;1.00;;;;;;5113115;28;20236;-61
2021/01/17 02:33:47;;;;;;;14.20;9.60;;;1.10;1.00;;;;;;5113034;27;20435;-61
2021/01/17 02:36:34;;;;;;;16.47;9.30;;;1.10;1.00;;;;;;5113617;28;20936;-61
2021/01/17 02:39:10;;;;;;;13.90;9.80;;;1.10;1.00;;;;;;5113293;28;20953;-61
2021/01/17 02:41:58;;;;;;;14.27;9.47;;;1.20;1.00;;;;;;5109311;27;20440;-61
2021/01/17 02:44:29;;;;;;;18.23;11.10;;;1.20;1.00;;;;;;5113624;28;20435;-61
2021/01/17 02:46:55;;;;;;;15.00;10.20;;;1.00;1.00;;;;;;5112811;28;20458;-61
2021/01/17 02:49:21;;;;;;;13.87;9.33;;;1.30;1.00;;;;;;5110970;28;20455;-61
2021/01/17 02:51:50;;;;;;;14.40;9.50;;;0.90;1.00;;;;;;5111951;28;20472;-61
2021/01/17 02:54:32;;;;;;;12.13;8.43;;;0.90;1.00;;;;;;5113092;28;20178;-61
2021/01/17 02:57:03;;;;;;;13.07;8.30;;;0.90;1.00;;;;;;5113052;28;20433;-61
2021/01/17 02:59:47;;;;;;;12.40;8.00;;;1.00;1.00;;;;;;5109085;27;20446;-61
2021/01/17 03:02:14;;;;;;;14.60;9.27;;;1.00;1.00;;;;;;5110473;27;20491;-61
2021/01/17 03:04:47;;;;;;;11.80;7.93;;;0.90;1.00;;;;;;5109676;28;20441;-61
2021/01/17 03:07:14;;;;;;;13.80;9.57;;;0.80;1.00;;;;;;5111964;28;20778;-61
2021/01/17 03:09:43;;;;;;;10.70;7.97;;;0.80;1.00;;;;;;5112897;28;20545;-61
2021/01/17 03:12:09;;;;;;;14.47;9.40;;;0.80;1.00;;;;;;5112825;28;20436;-61
2021/01/17 03:14:36;;;;;;;11.33;8.27;;;0.70;1.00;;;;;;5111961;28;20501;-61
2021/01/17 03:17:07;;;;;;;10.70;7.83;;;0.70;1.00;;;;;;5109182;27;20185;-61
2021/01/17 03:19:33;;;;;;;12.93;8.30;;;;;;;;;;5110345;28;20609;-61
2021/01/17 03:21:59;;;;;;;10.57;8.07;;;0.70;1.00;;;;;;5111978;28;20454;-61
2021/01/17 03:24:25;;;;;;;11.43;8.17;;;;;;;;;;5112563;28;20428;-61
2021/01/17 03:26:51;;;;;;;10.50;7.50;;;0.80;1.00;;;;;;5111445;28;20460;-61
2021/01/17 03:29:17;;;;;;;15.30;9.23;;;0.80;1.00;;;;;;5111496;28;20461;-61
2021/01/17 03:31:43;;;;;;;15.00;10.20;;;0.80;1.00;;;;;;5112293;28;20472;-61
2021/01/17 03:34:09;;;;;;;12.27;9.17;;;0.80;1.00;;;;;;5110920;28;20460;-61
2021/01/17 03:36:34;;;;;;;13.47;9.00;;;0.80;1.00;;;;;;5112279;28;20186;-61
2021/01/17 03:39:00;;;;;;;13.00;9.33;;;0.80;1.00;;;;;;5112318;28;20870;-61
2021/01/17 03:41:26;;;;;;;13.80;9.47;;;0.80;1.00;;;;;;5112069;28;20186;-61
2021/01/17 03:43:51;;;;;;;16.23;10.50;;;0.90;1.00;;;;;;5118529;27;20231;-61
2021/01/17 03:46:17;;;;;;;14.33;9.53;;;0.90;1.00;;;;;;5106624;27;20664;-61
2021/01/17 03:48:43;;;;;;;15.37;9.87;;;1.00;1.00;;;;;;5111470;28;20217;-61
2021/01/17 03:51:09;;;;;;;18.10;9.93;;;1.00;1.00;;;;;;5112215;28;20221;-61
2021/01/17 03:53:35;;;;;;;16.80;11.07;;;0.90;1.00;;;;;;5110034;28;21615;-61
2021/01/17 03:56:00;;;;;;;12.40;9.73;;;0.90;1.00;;;;;;5110889;28;20470;-61
2021/01/17 03:58:26;;;;;;;16.07;9.80;;;0.80;1.00;;;;;;5111130;28;20228;-61
2021/01/17 04:00:51;;;;;;;14.87;10.23;;;0.90;1.00;;;;;;5110796;28;20270;-61
2021/01/17 04:03:17;;;;;;;18.60;10.87;;;0.90;1.00;;;;;;5111385;28;20191;-61
2021/01/17 04:05:43;;;;;;;14.87;9.33;;;1.00;1.00;;;;;;5111668;28;20178;-61
2021/01/17 04:08:08;;;;;;;14.97;11.00;;;0.90;1.00;;;;;;5109192;28;20667;-61
2021/01/17 04:10:34;;;;;;;15.20;10.03;;;1.00;1.00;;;;;;5111911;28;20198;-61
2021/01/17 04:13:00;;;;;;;16.80;11.90;;;1.20;1.00;;;;;;5111993;28;20178;-61
2021/01/17 04:15:25;;;;;;;16.63;10.83;;;1.20;1.00;;;;;;5111298;28;20194;-61
2021/01/17 04:17:51;;;;;;;19.13;11.70;;;1.10;1.00;;;;;;5111897;28;20228;-61
2021/01/17 04:20:17;;;;;;;14.97;10.73;;;1.10;1.00;;;;;;5110803;28;20190;-61
2021/01/17 04:22:42;;;;;;;16.83;10.70;;;1.30;1.00;;;;;;5127594;28;20189;-61
2021/01/17 04:25:09;;;;;;;17.90;11.80;;;1.10;1.00;;;;;;5111830;28;20181;-61
2021/01/17 04:27:34;;;;;;;22.30;11.77;;;1.00;1.00;;;;;;5112610;27;20182;-61
2021/01/17 04:30:00;;;;;;;17.47;11.37;;;1.00;1.00;;;;;;5114817;28;20455;-61
2021/01/17 04:32:25;;;;;;;19.77;12.73;;;0.90;1.00;;;;;;5115967;28;20294;-61
2021/01/17 04:34:51;;;;;;;17.23;12.40;;;1.00;1.00;;;;;;5115277;27;20220;-61
2021/01/17 04:37:25;;;;;;;16.00;11.80;;;1.00;1.00;;;;;;5125712;27;20171;-61
2021/01/17 04:39:51;;;;;;;16.70;11.63;;;1.00;1.00;;;;;;5115745;28;20489;-61
2021/01/17 04:42:21;;;;;;;18.37;11.07;;;1.10;1.00;;;;;;5113648;28;20952;-61
2021/01/17 04:44:52;;;;;;;14.93;11.20;;;1.00;1.00;;;;;;5113821;28;20989;-61
2021/01/17 04:47:19;;;;;;;15.93;11.17;;;0.90;1.00;;;;;;5111411;27;20440;-61
2021/01/17 04:49:52;;;;;;;22.67;12.37;;;0.90;1.00;;;;;;5113900;28;20458;-61
2021/01/17 04:52:21;;;;;;;18.23;10.97;;;0.90;1.00;;;;;;5115685;28;20837;-61
2021/01/17 04:54:47;;;;;;;17.00;11.87;;;0.90;1.00;;;;;;5115377;28;20428;-62
2021/01/17 04:57:38;;;;;;;15.73;11.10;;;0.90;1.00;;;;;;5115342;28;20436;-61
2021/01/17 05:00:09;;;;;;;16.93;11.03;;;0.90;1.00;;;;;;5114941;28;20447;-61
2021/01/17 05:02:47;;;;;;;18.97;12.23;;;0.90;1.00;;;;;;5112806;28;20458;-61
2021/01/17 05:05:18;;;;;;;14.27;9.77;;;1.10;1.00;;;;;;5134359;27;20438;-61
2021/01/17 05:08:21;;;;;;;17.23;10.60;;;1.10;1.00;;;;;;5135513;27;20454;-62
2021/01/17 05:10:55;;;;;;;15.60;10.40;;;1.00;1.00;;;;;;5110662;27;20462;-61
2021/01/17 05:13:26;;;;;;;16.07;10.83;;;0.90;1.00;;;;;;5116757;27;20445;-61
2021/01/17 05:15:55;;;;;;;17.03;12.27;;;0.90;1.00;;;;;;5121532;27;20447;-61
2021/01/17 05:18:22;;;;;;;19.50;12.07;;;0.90;1.00;;;;;;5118631;27;20873;-61
2021/01/17 05:20:49;;;;;;;17.90;11.13;;;1.00;1.00;;;;;;5114356;28;20443;-61
2021/01/17 05:23:16;;;;;;;17.13;12.00;;;0.90;1.00;;;;;;5111167;28;20614;-61
2021/01/17 05:25:43;;;;;;;15.83;10.43;;;1.00;1.00;;;;;;5114841;27;20436;-61
2021/01/17 05:28:08;;;;;;;17.60;12.13;;;1.00;1.00;;;;;;5113384;27;20444;-61
2021/01/17 05:30:35;;;;;;;16.47;11.83;;;0.90;1.00;;;;;;5114593;28;20455;-61
2021/01/17 05:33:07;;;;;;;17.23;11.10;;;0.90;1.00;;;;;;5094485;28;20516;-62
2021/01/17 05:35:33;;;;;;;15.63;11.20;;;0.90;1.00;;;;;;5109627;28;20941;-61
2021/01/17 05:37:59;;;;;;;16.47;9.93;;;0.90;1.00;;;;;;5111437;28;20440;-61
2021/01/17 05:40:24;;;;;;;16.63;11.90;;;0.80;1.00;;;;;;5109985;28;20458;-61
2021/01/17 05:42:50;;;;;;;18.20;10.20;;;0.70;1.00;;;;;;5112812;28;20186;-61
2021/01/17 05:45:23;;;;;;;13.60;9.57;;;0.70;1.00;;;;;;5112432;28;20197;-61
2021/01/17 05:47:54;;;;;;;14.60;10.30;;;0.60;1.00;;;;;;5112881;28;20262;-61
2021/01/17 05:50:20;;;;;;;18.00;11.10;;;0.40;1.00;;;;;;5111648;28;20468;-61
2021/01/17 05:52:53;;;;;;;15.30;10.53;;;0.40;1.00;;;;;;5112780;28;20450;-61
2021/01/17 05:55:28;;;;;;;14.17;10.57;;;0.30;1.00;;;;;;5111114;28;20865;-61
2021/01/17 05:57:53;;;;;;;16.30;10.30;;;0.20;1.00;;;;;;5110804;28;20988;-61
2021/01/17 06:00:32;;;;;;;14.27;9.83;;;0.20;1.00;;;;;;5112581;28;20530;-61
2021/01/17 06:02:58;;;;;;;17.30;11.10;;;0.20;1.00;;;;;;5112333;28;20257;-61
2021/01/17 06:05:25;;;;;;;18.70;11.17;;;0.20;1.00;;;;;;5112610;28;20485;-61
2021/01/17 06:07:50;;;;;;;18.93;11.77;;;0.20;1.00;;;;;;5111684;28;20479;-61
2021/01/17 06:10:22;;;;;;;18.50;10.73;;;0.10;1.00;;;;;;5112490;28;20540;-61
2021/01/17 06:12:51;;;;;;;19.33;11.30;;;0.00;1.00;;;;;;5112695;28;20178;-61
2021/01/17 06:15:17;;;;;;;15.33;11.07;;;-0.10;1.00;;;;;;5110188;28;20444;-61
2021/01/17 06:17:47;;;;;;;16.93;11.33;;;-0.10;1.00;;;;;;5112661;28;20447;-61
2021/01/17 06:20:26;;;;;;;17.70;11.67;;;-0.10;1.00;;;;;;5110313;28;21123;-61
2021/01/17 06:22:59;;;;;;;16.90;12.07;;;-0.10;1.00;;;;;;5111675;28;20792;-61
2021/01/17 06:25:30;;;;;;;20.93;11.67;;;0.10;1.00;;;;;;5111696;28;20451;-61
2021/01/17 06:28:13;;;;;;;15.30;11.80;;;0.10;1.00;;;;;;5110114;28;20443;-61
2021/01/17 06:30:40;;;;;;;14.83;10.80;;;0.10;1.00;;;;;;5090420;28;607130;-62
2021/01/17 06:33:06;;;;;;;20.00;11.30;;;0.10;1.00;;;;;;5113078;28;20829;-61
2021/01/17 06:35:39;;;;;;;18.07;11.90;;;0.10;1.00;;;;;;5111990;27;20794;-61
2021/01/17 06:38:35;;;;;;;19.93;11.83;;;0.20;1.00;;;;;;5112746;28;20933;-61
2021/01/17 06:41:01;;;;;;;24.20;16.00;;;0.30;1.00;;;;;;5102473;28;20450;-61
2021/01/17 06:43:31;;;;;;;28.37;16.13;;;0.40;1.00;;;;;;5112620;28;20871;-61
2021/01/17 06:45:57;;;;;;;55.90;34.57;;;0.50;1.00;;;;;;5112198;27;20174;-61
2021/01/17 06:48:24;;;;;;;44.43;31.50;;;0.60;1.00;;;;;;5112535;28;20428;-61
2021/01/17 06:50:51;;;;;;;23.10;15.67;;;0.70;1.00;;;;;;5110241;28;20467;-61
2021/01/17 06:53:24;;;;;;;12.83;10.13;;;0.80;1.00;;;;;;5111609;28;20450;-62
2021/01/17 06:56:14;;;;;;;12.00;8.43;;;0.80;1.00;;;;;;5111972;28;20432;-61
2021/01/17 06:58:40;;;;;;;13.27;8.37;;;0.90;1.00;;;;;;5113334;28;20912;-61
2021/01/17 07:01:07;;;;;;;11.37;7.60;;;0.80;1.00;;;;;;5112591;27;20439;-61
2021/01/17 07:03:50;;;;;;;13.63;9.30;;;0.70;1.00;;;;;;5109201;27;20457;-61
2021/01/17 07:07:05;;;;;;;12.07;8.20;;;0.70;1.00;;;;;;5112193;28;20794;-61
2021/01/17 07:09:48;;;;;;;14.47;8.10;;;0.70;1.00;;;;;;5031895;28;20600;-61
2021/01/17 07:12:55;;;;;;;11.93;8.20;;;0.70;1.00;;;;;;5111771;28;20452;-61
2021/01/17 07:15:29;;;;;;;13.67;8.50;;;0.70;1.00;;;;;;5110067;27;20451;-61
2021/01/17 07:18:12;;;;;;;13.37;8.50;;;0.60;1.00;;;;;;5112125;28;20826;-61
2021/01/17 07:20:42;;;;;;;13.40;7.83;;;0.70;1.00;;;;;;5110661;28;20454;-61
2021/01/17 07:23:15;;;;;;;12.07;8.53;;;0.60;1.00;;;;;;5110870;28;20455;-61
2021/01/17 07:25:44;;;;;;;12.97;8.77;;;0.50;1.00;;;;;;5112284;28;21013;-61
2021/01/17 07:28:19;;;;;;;13.93;8.03;;;0.70;1.00;;;;;;5110750;28;20443;-61
2021/01/17 07:31:01;;;;;;;14.07;8.90;;;0.60;1.00;;;;;;5110628;27;20451;-61
2021/01/17 07:33:36;;;;;;;13.50;7.93;;;0.70;1.00;;;;;;5111966;28;20432;-61
2021/01/17 07:36:10;;;;;;;14.33;10.53;;;0.80;1.00;;;;;;5111506;28;20486;-61
2021/01/17 07:38:38;;;;;;;16.23;10.47;;;0.90;1.00;;;;;;5110190;28;20948;-61
2021/01/17 07:41:07;;;;;;;13.70;9.47;;;0.90;1.00;;;;;;5110133;28;20495;-61
2021/01/17 07:43:35;;;;;;;19.83;11.90;;;1.00;1.00;;;;;;5107928;28;20941;-62
2021/01/17 07:46:06;;;;;;;14.10;9.70;;;1.00;1.00;;;;;;5109947;28;20450;-61
2021/01/17 07:48:33;;;;;;;15.43;10.97;;;1.00;1.00;;;;;;5108312;28;20821;-61
2021/01/17 07:51:01;;;;;;;15.33;10.90;;;0.90;1.00;;;;;;5110562;28;20794;-60
2021/01/17 07:53:39;;;;;;;18.67;10.70;;;1.00;1.00;;;;;;5111728;27;20762;-60
2021/01/17 07:56:30;;;;;;;19.93;11.50;;;1.00;1.00;;;;;;5111935;28;20440;-61
2021/01/17 07:59:03;;;;;;;17.73;10.40;;;1.00;1.00;;;;;;5110788;28;20428;-61
2021/01/17 08:01:35;;;;;;;15.10;10.63;;;1.20;1.00;;;;;;5111081;28;20457;-61
2021/01/17 08:04:16;;;;;;;14.67;10.97;;;1.20;1.00;;;;;;5111265;28;20525;-61
2021/01/17 08:06:42;;;;;;;14.53;10.50;;;1.20;1.00;;;;;;5110302;28;20440;-63
2021/01/17 08:09:16;;;;;;;16.33;10.77;;;1.20;1.00;;;;;;5109725;28;20442;-61
2021/01/17 08:11:48;;;;;;;15.47;11.23;;;1.30;1.00;;;;;;5110760;28;20174;-61
2021/01/17 08:14:17;;;;;;;14.80;9.13;;;1.40;1.00;;;;;;5110698;28;20436;-61
2021/01/17 08:17:14;;;;;;;13.27;9.07;;;1.40;1.00;;;;;;5110704;28;20433;-62
2021/01/17 08:19:44;;;;;;;14.73;9.63;;;1.40;1.00;;;;;;5111051;28;20439;-60
2021/01/17 08:22:30;;;;;;;14.67;9.60;;;1.50;1.00;;;;;;5109307;28;20670;-60
2021/01/17 08:25:01;;;;;;;12.40;8.70;;;1.60;1.00;;;;;;5096364;28;20444;-61
2021/01/17 08:27:45;;;;;;;14.00;9.43;;;1.80;1.00;;;;;;5109395;28;20441;-60
2021/01/17 08:30:18;;;;;;;11.43;8.03;;;1.90;1.00;;;;;;5115349;28;20464;-60
2021/01/17 08:32:44;;;;;;;13.77;9.20;;;2.00;1.00;;;;;;5110365;28;20508;-60
2021/01/17 08:35:13;;;;;;;8.93;7.30;;;2.10;1.00;;;;;;5109965;28;20447;-60
2021/01/17 08:37:40;;;;;;;14.23;9.30;;;2.20;1.00;;;;;;5110561;28;20452;-60
2021/01/17 08:40:06;;;;;;;11.83;8.83;;;2.20;1.00;;;;;;5110346;28;20438;-60
2021/01/17 08:42:37;;;;;;;12.13;8.07;;;2.20;1.00;;;;;;5109953;28;20437;-60
2021/01/17 08:45:24;;;;;;;16.90;11.90;;;2.30;1.00;;;;;;5110293;28;20440;-60
2021/01/17 08:47:55;;;;;;;25.30;13.47;;;2.40;1.00;;;;;;5108946;28;20469;-60
2021/01/17 08:50:27;;;;;;;18.43;11.40;;;2.20;1.00;;;;;;5110262;28;20987;-60
2021/01/17 08:53:05;;;;;;;12.17;8.87;;;2.30;1.00;;;;;;5110559;28;20778;-61
2021/01/17 08:55:49;;;;;;;17.00;11.70;;;2.20;1.00;;;;;;5110170;28;20466;-60
2021/01/17 08:58:34;;;;;;;14.73;9.33;;;2.20;1.00;;;;;;5107802;28;20438;-64
2021/01/17 09:01:00;;;;;;;13.33;8.53;;;2.30;1.00;;;;;;5110137;28;20483;-61
2021/01/17 09:03:34;;;;;;;13.53;7.93;;;3.10;1.00;;;;;;5110818;28;20488;-60
2021/01/17 09:06:02;;;;;;;12.27;9.40;;;2.30;1.00;;;;;;5108830;28;20635;-60
2021/01/17 09:08:29;;;;;;;11.03;8.73;;;2.30;1.00;;;;;;5110579;28;20486;-60
2021/01/17 09:10:55;;;;;;;13.60;9.77;;;2.30;1.00;;;;;;5109841;28;20465;-60
2021/01/17 09:13:23;;;;;;;12.80;8.70;;;2.40;1.00;;;;;;5111122;28;20439;-60
2021/01/17 09:15:52;;;;;;;10.97;8.20;;;2.30;1.00;;;;;;5112906;28;20439;-60
2021/01/17 09:18:24;;;;;;;12.53;8.50;;;2.30;1.00;;;;;;5114159;28;20493;-60
2021/01/17 09:20:52;;;;;;;12.77;9.30;;;2.50;1.00;;;;;;5112872;28;20518;-60
2021/01/17 09:23:20;;;;;;;15.17;10.20;;;2.50;1.00;;;;;;5113895;27;20816;-60
2021/01/17 09:25:47;;;;;;;11.07;8.00;;;2.50;1.00;;;;;;5114154;28;20489;-60
2021/01/17 09:28:18;;;;;;;14.10;9.30;;;2.60;1.00;;;;;;5113439;28;20540;-60
2021/01/17 09:30:54;;;;;;;14.23;10.37;;;2.50;1.00;;;;;;5112886;28;20517;-60
2021/01/17 09:33:20;;;;;;;14.40;9.90;;;2.50;1.00;;;;;;5114019;28;20945;-60
2021/01/17 09:35:46;;;;;;;15.00;11.03;;;2.60;1.00;;;;;;5114023;28;20429;-60
2021/01/17 09:38:14;;;;;;;16.77;11.03;;;2.70;1.00;;;;;;5113703;28;20436;-60
2021/01/17 09:40:41;;;;;;;14.40;9.57;;;2.60;1.00;;;;;;5113635;28;20448;-59
2021/01/17 09:43:07;;;;;;;15.03;10.63;;;2.70;1.00;;;;;;5111568;28;20527;-60
2021/01/17 09:45:34;;;;;;;16.23;11.23;;;2.80;1.00;;;;;;5117544;27;20449;-60
2021/01/17 09:48:00;;;;;;;22.63;14.00;;;2.80;1.00;;;;;;5113650;28;20454;-60
2021/01/17 09:50:33;;;;;;;14.60;10.50;;;2.90;1.00;;;;;;5112470;28;20950;-60
2021/01/17 09:53:06;;;;;;;15.00;11.23;;;3.10;1.00;;;;;;5112165;28;20920;-60
2021/01/17 09:55:33;;;;;;;16.60;11.80;;;3.00;1.00;;;;;;5112129;28;20504;-60
2021/01/17 09:58:06;;;;;;;18.70;11.60;;;3.00;1.00;;;;;;5113739;28;20436;-60
2021/01/17 10:00:32;;;;;;;15.37;9.80;;;3.10;1.00;;;;;;5112808;28;20789;-60
2021/01/17 10:02:58;;;;;;;14.70;11.00;;;3.00;1.00;;;;;;5112974;28;20441;-60
2021/01/17 10:05:30;;;;;;;16.87;10.37;;;3.00;1.00;;;;;;5113358;28;20493;-60
2021/01/17 10:08:04;;;;;;;14.13;10.93;;;2.90;1.00;;;;;;5112192;28;20413;-60
2021/01/17 10:10:31;;;;;;;15.33;10.30;;;2.80;1.00;;;;;;5119904;27;20464;-60
2021/01/17 10:12:57;;;;;;;15.47;9.93;;;2.80;1.00;;;;;;5117385;27;20437;-60
2021/01/17 10:15:24;;;;;;;17.43;10.90;;;2.70;1.00;;;;;;5115217;27;20492;-60
2021/01/17 10:17:50;;;;;;;17.33;11.17;;;2.60;1.00;;;;;;5113044;28;20233;-60
2021/01/17 10:20:33;;;;;;;22.40;13.03;;;2.70;1.00;;;;;;5112605;28;20446;-60
2021/01/17 10:23:03;;;;;;;19.10;11.67;;;2.80;1.00;;;;;;5112521;28;20434;-60
2021/01/17 10:25:30;;;;;;;15.77;11.70;;;3.10;1.00;;;;;;5110374;28;20444;-59
2021/01/17 10:28:00;;;;;;;18.10;11.70;;;3.10;1.00;;;;;;5112025;28;21009;-60
2021/01/17 10:30:30;;;;;;;14.23;10.77;;;3.20;1.00;;;;;;5114518;27;20461;-60
2021/01/17 10:33:03;;;;;;;24.63;13.93;;;3.30;1.00;;;;;;5113144;28;20514;-60
2021/01/17 10:35:31;;;;;;;21.80;14.27;;;3.30;1.00;;;;;;5111590;28;20468;-60
2021/01/17 10:37:57;;;;;;;15.53;11.53;;;3.50;1.00;;;;;;5112797;28;20441;-60
2021/01/17 10:40:27;;;;;;;14.70;11.47;;;3.70;1.00;;;;;;5112488;27;20502;-60
2021/01/17 10:42:55;;;;;;;17.93;11.80;;;4.00;1.00;;;;;;5115936;27;20944;-60
2021/01/17 10:45:24;;;;;;;17.60;12.67;;;4.00;1.00;;;;;;5111831;28;20952;-60
2021/01/17 10:48:03;;;;;;;14.70;10.77;;;4.00;1.00;;;;;;5121587;27;20493;-60
2021/01/17 10:50:42;;;;;;;19.40;12.47;;;4.10;1.00;;;;;;5111877;27;20504;-61
2021/01/17 10:53:29;;;;;;;16.23;12.60;;;4.10;1.00;;;;;;5110523;28;20441;-59
2021/01/17 10:55:56;;;;;;;13.67;9.83;;;3.90;1.00;;;;;;5111626;28;20435;-58
2021/01/17 10:58:30;;;;;;;18.03;11.07;;;3.40;1.00;;;;;;5120440;27;20471;-58
2021/01/17 11:00:58;;;;;;;17.03;10.63;;;3.00;1.00;;;;;;5114373;27;20939;-58
2021/01/17 11:03:30;;;;;;;15.80;10.00;;;2.80;1.00;;;;;;5114385;27;20486;-59
2021/01/17 11:06:16;;;;;;;16.07;11.33;;;2.70;1.00;;;;;;5118281;27;20437;-59
2021/01/17 11:08:41;;;;;;;21.67;12.20;;;2.70;1.00;;;;;;5116962;27;20943;-58
2021/01/17 11:11:08;;;;;;;14.30;10.30;;;2.70;1.00;;;;;;5111294;28;20460;-59
2021/01/17 11:13:33;;;;;;;17.20;11.73;;;2.50;1.00;;;;;;5112126;28;20200;-59
2021/01/17 11:15:59;;;;;;;16.87;11.27;;;2.40;1.00;;;;;;5112226;28;20829;-58
2021/01/17 11:18:25;;;;;;;14.57;11.37;;;2.40;1.00;;;;;;5111921;28;20189;-58
2021/01/17 11:21:01;;;;;;;16.10;11.97;;;2.50;1.00;;;;;;5111925;28;20170;-58
2021/01/17 11:23:28;;;;;;;17.77;10.83;;;2.60;1.00;;;;;;5111412;28;20434;-59
2021/01/17 11:26:04;;;;;;;15.70;10.60;;;2.50;1.00;;;;;;5110404;28;20978;-58
2021/01/17 11:28:31;;;;;;;15.30;10.83;;;2.50;1.00;;;;;;5112037;28;20528;-59
2021/01/17 11:31:16;;;;;;;17.30;11.27;;;2.70;1.00;;;;;;5114571;27;20504;-60
2021/01/17 11:33:43;;;;;;;17.33;12.40;;;2.80;1.00;;;;;;5114953;27;20437;-61
2021/01/17 11:36:09;;;;;;;16.60;11.23;;;3.00;1.00;;;;;;5112451;28;20530;-61
2021/01/17 11:39:02;;;;;;;15.90;11.07;;;3.10;1.00;;;;;;5113617;28;20423;-62
2021/01/17 11:41:39;;;;;;;17.60;10.67;;;3.30;1.00;;;;;;5112828;27;20443;-62
2021/01/17 11:44:11;;;;;;;17.97;11.73;;;3.40;1.00;;;;;;5113351;28;20447;-62
2021/01/17 11:46:37;;;;;;;22.93;12.20;;;3.40;1.00;;;;;;5104415;28;20519;-61
2021/01/17 11:49:03;;;;;;;12.60;10.53;;;3.50;1.00;;;;;;5113146;28;20943;-61
2021/01/17 11:51:30;;;;;;;15.60;10.93;;;3.60;1.00;;;;;;5112931;28;20594;-65
2021/01/17 11:54:07;;;;;;;17.57;11.20;;;3.50;1.00;;;;;;5110317;28;20445;-59
2021/01/17 11:56:33;;;;;;;12.07;10.33;;;3.60;1.00;;;;;;5109971;28;20449;-63
2021/01/17 11:58:58;;;;;;;15.10;11.00;;;3.70;1.00;;;;;;5115385;27;20939;-64
2021/01/17 12:01:27;;;;;;;16.23;11.07;;;3.70;1.00;;;;;;5112358;28;20267;-62
2021/01/17 12:04:12;;;;;;;15.93;10.70;;;3.60;1.00;;;;;;5115279;27;20657;-64
2021/01/17 12:06:37;;;;;;;17.10;11.80;;;3.40;1.00;;;;;;5112907;27;20439;-65
2021/01/17 12:09:07;;;;;;;13.40;11.13;;;3.30;1.00;;;;;;5122625;27;20440;-65
2021/01/17 12:11:37;;;;;;;14.10;10.10;;;3.30;1.00;;;;;;5110247;28;20183;-65
2021/01/17 12:14:13;;;;;;;17.90;10.73;;;3.20;1.00;;;;;;5121123;27;20448;-63
2021/01/17 12:16:50;;;;;;;16.10;9.70;;;3.20;1.00;;;;;;5118450;28;20849;-65
2021/01/17 12:19:17;;;;;;;14.73;9.20;;;3.30;1.00;;;;;;5107189;28;20440;-66
2021/01/17 12:21:44;;;;;;;14.53;11.50;;;3.50;1.00;;;;;;5110849;28;20434;-67
2021/01/17 12:24:14;;;;;;;15.23;11.13;;;3.40;1.00;;;;;;5112262;28;20443;-65
2021/01/17 12:26:42;;;;;;;17.17;10.73;;;3.50;1.00;;;;;;5110368;28;20520;-66
2021/01/17 12:29:08;;;;;;;11.37;9.33;;;3.20;1.00;;;;;;5113532;28;20535;-66
2021/01/17 12:31:34;;;;;;;14.70;9.07;;;3.10;1.00;;;;;;5110992;28;20470;-65
2021/01/17 12:34:00;;;;;;;11.70;10.30;;;3.10;1.00;;;;;;5112068;28;20441;-63
2021/01/17 12:36:28;;;;;;;13.20;10.60;;;3.20;1.00;;;;;;5111294;28;20582;-65
2021/01/17 12:38:55;;;;;;;13.80;9.07;;;3.20;1.00;;;;;;5113908;28;20449;-65
2021/01/17 12:41:23;;;;;;;11.17;8.10;;;3.10;1.00;;;;;;5122352;28;20550;-64
2021/01/17 12:43:49;;;;;;;11.30;9.10;;;3.00;1.00;;;;;;5119442;27;20441;-64
2021/01/17 12:46:16;;;;;;;12.80;9.83;;;3.20;1.00;;;;;;5121210;28;20810;-65
2021/01/17 12:48:42;;;;;;;16.23;9.90;;;3.20;1.00;;;;;;5122029;27;20442;-65
2021/01/17 12:51:08;;;;;;;15.37;8.80;;;3.20;1.00;;;;;;5123189;27;20455;-66
2021/01/17 12:53:39;;;;;;;13.10;9.40;;;3.30;1.00;;;;;;5115325;27;20492;-65
2021/01/17 12:56:05;;;;;;;13.80;10.00;;;3.40;1.00;;;;;;5126513;27;20432;-65
2021/01/17 12:58:31;;;;;;;13.40;9.43;;;3.50;1.00;;;;;;5115474;28;20446;-63
2021/01/17 13:00:57;;;;;;;12.67;8.73;;;3.50;1.00;;;;;;5114816;28;20522;-61
2021/01/17 13:03:23;;;;;;;15.60;11.80;;;3.60;1.00;;;;;;5119125;27;20569;-62
2021/01/17 13:05:50;;;;;;;15.37;10.70;;;3.60;1.00;;;;;;5126091;27;20551;-62
2021/01/17 13:08:20;;;;;;;17.47;10.93;;;3.60;1.00;;;;;;5118815;27;20278;-63